Station History

Weather Underground - logo

Station Historical Data
Daily Summary for January 29, 2018 Units:  Metric    English   Both
« Previous Day
Next Day »
Daily Weekly Monthly Yearly Custom
  High: Low: Average:
Temperature: 18.6 °C 2.9 °C 10 °C
Dew Point: 10.5 °C 2 °C 6.7 °C
Humidity: 95 % 57 % 82 %
Wind Speed: 5.6 km/h 0 km/h 0.3 km/h
Wind Gust: 5.6 km/h - -
Wind:- - West
Pressure: 1028 hPa 1020.9 hPa -
Precipitation: 0 mm    
Historical Graphs
 
 
Tabular Data for January 29, 2018
Time Temperature Dew Point Pressure Wind Wind Speed Wind Gust Humidity Rainfall Rate (Hourly)
00:00 5 °C 3.5 °C 1027.3 hPa Calm     90 % 0 mm
00:05 4.8 °C 3.3 °C 1027.7 hPa Calm     90 % 0 mm
00:10 4.6 °C 3.3 °C 1027.7 hPa Calm     91 % 0 mm
00:15 4.6 °C 3.4 °C 1027.7 hPa Calm     92 % 0 mm
00:20 4.6 °C 3.4 °C 1027.7 hPa SSE 1.9 km/h 1.9 km/h 92 % 0 mm
00:25 4.5 °C 3.3 °C 1027.7 hPa Calm     92 % 0 mm
00:30 4.4 °C 3.3 °C 1027.7 hPa Calm     92 % 0 mm
00:35 4.4 °C 3.2 °C 1027.7 hPa Calm     92 % 0 mm
00:40 4.4 °C 3.3 °C 1027.7 hPa Calm     92 % 0 mm
00:45 4.4 °C 3.3 °C 1027.7 hPa Calm     93 % 0 mm
00:50 4.4 °C 3.4 °C 1027.7 hPa Calm     93 % 0 mm
00:55 4.4 °C 3.3 °C 1027.7 hPa Calm     93 % 0 mm
01:00 4.4 °C 3.3 °C 1027.7 hPa Calm     93 % 0 mm
01:05 4.4 °C 3.4 °C 1027.7 hPa Calm     93 % 0 mm
01:10 4.4 °C 3.4 °C 1027.7 hPa Calm     93 % 0 mm
01:16 4.4 °C 3.3 °C 1027.7 hPa Calm     93 % 0 mm
01:21 4.4 °C 3.3 °C 1028 hPa Calm     93 % 0 mm
01:26 4.2 °C 3 °C 1028 hPa Calm     92 % 0 mm
01:31 4.1 °C 3.1 °C 1028 hPa Calm     93 % 0 mm
01:36 4.2 °C 3.2 °C 1028 hPa Calm     93 % 0 mm
01:41 4.3 °C 3.4 °C 1028 hPa Calm     94 % 0 mm
01:46 4.3 °C 3.3 °C 1028 hPa Calm     93 % 0 mm
01:51 4.3 °C 3.2 °C 1027.7 hPa Calm     93 % 0 mm
01:56 4.2 °C 3.1 °C 1027.7 hPa Calm     93 % 0 mm
02:01 4.3 °C 3.4 °C 1027.3 hPa Calm     94 % 0 mm
02:06 4.6 °C 3.7 °C 1027.3 hPa Calm     94 % 0 mm
02:11 4.9 °C 4 °C 1027 hPa Calm     94 % 0 mm
02:16 5 °C 4.1 °C 1027 hPa Calm     94 % 0 mm
02:21 5.3 °C 4.4 °C 1027 hPa Calm     94 % 0 mm
02:26 5.3 °C 4.4 °C 1026.6 hPa Calm     94 % 0 mm
02:31 5.2 °C 4.1 °C 1026.3 hPa Calm     93 % 0 mm
02:36 5 °C 3.8 °C 1026.3 hPa Calm     92 % 0 mm
02:41 4.8 °C 3.7 °C 1026.3 hPa Calm     92 % 0 mm
02:46 4.5 °C 3.2 °C 1026 hPa Calm     91 % 0 mm
02:51 4.3 °C 3.1 °C 1026 hPa Calm     92 % 0 mm
02:56 4.3 °C 3.1 °C 1026 hPa Calm     92 % 0 mm
03:01 4.3 °C 3.2 °C 1026 hPa Calm     93 % 0 mm
03:06 4.2 °C 3.2 °C 1026 hPa Calm     93 % 0 mm
03:11 4 °C 2.8 °C 1025.6 hPa Calm     92 % 0 mm
03:16 3.9 °C 2.9 °C 1025.6 hPa Calm     93 % 0 mm
03:21 3.9 °C 2.8 °C 1025.6 hPa Calm     93 % 0 mm
03:26 3.8 °C 2.7 °C 1025.6 hPa Calm     93 % 0 mm
03:31 3.7 °C 2.7 °C 1025.6 hPa Calm     93 % 0 mm
03:36 3.7 °C 2.7 °C 1025.6 hPa Calm     93 % 0 mm
03:41 3.7 °C 2.8 °C 1025.6 hPa Calm     94 % 0 mm
03:46 3.8 °C 2.9 °C 1025.6 hPa Calm     94 % 0 mm
03:51 3.8 °C 2.9 °C 1025.6 hPa Calm     94 % 0 mm
03:56 3.9 °C 3.1 °C 1025.6 hPa Calm     94 % 0 mm
04:01 4 °C 3.1 °C 1026 hPa Calm     94 % 0 mm
04:06 4.1 °C 3.2 °C 1026 hPa Calm     94 % 0 mm
04:11 4.2 °C 3.3 °C 1026 hPa Calm     94 % 0 mm
04:16 4.3 °C 3.4 °C 1026.3 hPa Calm     94 % 0 mm
04:21 4.2 °C 3.3 °C 1026.3 hPa Calm     94 % 0 mm
04:26 3.9 °C 2.9 °C 1026.3 hPa Calm     93 % 0 mm
04:31 3.8 °C 2.8 °C 1026.3 hPa Calm     93 % 0 mm
04:36 3.8 °C 2.9 °C 1026.3 hPa Calm     94 % 0 mm
04:41 3.7 °C 2.8 °C 1026.6 hPa Calm     94 % 0 mm
04:46 3.7 °C 2.8 °C 1026.6 hPa Calm     94 % 0 mm
04:51 3.6 °C 2.7 °C 1026.6 hPa Calm     94 % 0 mm
04:56 3.6 °C 2.7 °C 1026.6 hPa Calm     94 % 0 mm
05:01 3.7 °C 2.8 °C 1027 hPa Calm     94 % 0 mm
05:06 3.8 °C 2.9 °C 1027 hPa Calm     94 % 0 mm
05:12 3.8 °C 2.9 °C 1027 hPa Calm     94 % 0 mm
05:16 3.7 °C 2.8 °C 1026.6 hPa Calm     94 % 0 mm
05:21 3.7 °C 2.8 °C 1026.6 hPa Calm     94 % 0 mm
05:26 3.8 °C 2.9 °C 1026.6 hPa Calm     94 % 0 mm
05:32 3.7 °C 2.8 °C 1026.3 hPa Calm     94 % 0 mm
05:37 3.6 °C 2.7 °C 1026.3 hPa Calm     94 % 0 mm
05:42 3.6 °C 2.7 °C 1026.3 hPa Calm     94 % 0 mm
05:47 3.6 °C 2.7 °C 1026.3 hPa Calm     94 % 0 mm
05:52 3.4 °C 2.5 °C 1026.3 hPa Calm     94 % 0 mm
05:57 3.4 °C 2.5 °C 1026.3 hPa Calm     94 % 0 mm
06:02 3.4 °C 2.5 °C 1026 hPa Calm     94 % 0 mm
06:07 3.5 °C 2.6 °C 1026 hPa Calm     94 % 0 mm
06:12 3.6 °C 2.8 °C 1026 hPa Calm     95 % 0 mm
06:17 3.4 °C 2.6 °C 1025.6 hPa Calm     94 % 0 mm
06:22 3.4 °C 2.5 °C 1025.6 hPa Calm     94 % 0 mm
06:27 3.3 °C 2.4 °C 1025.6 hPa Calm     94 % 0 mm
06:32 3.3 °C 2.4 °C 1025.6 hPa Calm     94 % 0 mm
06:37 3.2 °C 2.3 °C 1025.6 hPa Calm     94 % 0 mm
06:42 3.2 °C 2.3 °C 1025.6 hPa Calm     94 % 0 mm
06:47 3.1 °C 2.2 °C 1025.6 hPa Calm     94 % 0 mm
06:52 3 °C 2.1 °C 1026 hPa Calm     94 % 0 mm
06:57 2.9 °C 2.1 °C 1026 hPa Calm     94 % 0 mm
07:02 2.9 °C 2.1 °C 1026 hPa Calm     94 % 0 mm
07:07 2.9 °C 2 °C 1026 hPa Calm     94 % 0 mm
07:12 2.9 °C 2.1 °C 1026 hPa Calm     94 % 0 mm
07:17 2.9 °C 2.1 °C 1026 hPa Calm     94 % 0 mm
07:22 2.9 °C 2.1 °C 1026.3 hPa Calm     94 % 0 mm
07:27 3 °C 2.1 °C 1026.3 hPa Calm     94 % 0 mm
07:32 3.1 °C 2.2 °C 1026.3 hPa Calm     94 % 0 mm
07:37 3.2 °C 2.5 °C 1026.6 hPa Calm     95 % 0 mm
07:42 3.4 °C 2.7 °C 1026.6 hPa Calm     95 % 0 mm
07:47 3.5 °C 2.8 °C 1026.6 hPa Calm     95 % 0 mm
07:52 3.7 °C 3 °C 1027 hPa Calm     95 % 0 mm
07:57 4.1 °C 3.3 °C 1027 hPa Calm     95 % 0 mm
08:02 4.4 °C 3.7 °C 1027 hPa Calm     95 % 0 mm
08:07 4.7 °C 4 °C 1027 hPa Calm     95 % 0 mm
08:12 5.1 °C 4.4 °C 1027 hPa ESE 1.6 km/h 1.6 km/h 95 % 0 mm
08:17 5.5 °C 4.8 °C 1026.6 hPa ESE 1.9 km/h   95 % 0 mm
08:22 5.9 °C 5.2 °C 1027 hPa Calm     95 % 0 mm
08:27 6.2 °C 5.3 °C 1026.6 hPa Calm     94 % 0 mm
08:32 6.6 °C 5.7 °C 1027 hPa Calm     94 % 0 mm
08:37 6.8 °C 5.8 °C 1027 hPa Calm     93 % 0 mm
08:42 7.1 °C 6.1 °C 1027 hPa Calm     93 % 0 mm
08:47 7.4 °C 6.3 °C 1027 hPa Calm     93 % 0 mm
08:52 7.8 °C 6.6 °C 1027 hPa Calm     92 % 0 mm
08:57 8.3 °C 7.1 °C 1027.3 hPa SE 1.9 km/h   92 % 0 mm
09:02 8.5 °C 7.1 °C 1027.3 hPa Calm     91 % 0 mm
09:07 8.6 °C 7.1 °C 1027 hPa Calm     90 % 0 mm
09:12 8.8 °C 7.2 °C 1027 hPa Calm     90 % 0 mm
09:17 9.1 °C 7.6 °C 1027 hPa Calm   0.2 km/h 90 % 0 mm
09:22 9.5 °C 7.6 °C 1027 hPa SE 3.7 km/h 3.7 km/h 88 % 0 mm
09:27 9.8 °C 7.8 °C 1027 hPa SE 1.9 km/h 1.9 km/h 87 % 0 mm
09:32 10.3 °C 8.2 °C 1027 hPa Calm   0.2 km/h 87 % 0 mm
09:37 10.7 °C 8.2 °C 1027 hPa Calm   0.2 km/h 85 % 0 mm
09:42 10.9 °C 8.3 °C 1027 hPa Calm     84 % 0 mm
09:43 11 °C 8.2 °C 1027 hPa Calm     83 % 0 mm
09:48 11.2 °C 8.3 °C 1027 hPa ESE 1.9 km/h   82 % 0 mm
09:53 11.6 °C 8.2 °C 1027 hPa Calm     80 % 0 mm
09:58 11.7 °C 8.2 °C 1027 hPa WNW 1.6 km/h 1.6 km/h 79 % 0 mm
10:03 11.8 °C 8.1 °C 1027 hPa Calm     78 % 0 mm
10:08 12.1 °C 8.2 °C 1027 hPa Calm     77 % 0 mm
10:13 12.4 °C 8.3 °C 1027 hPa Calm     76 % 0 mm
10:18 12.8 °C 8.4 °C 1027 hPa WNW 1.9 km/h 1.9 km/h 75 % 0 mm
10:23 12.9 °C 8.2 °C 1027 hPa Calm     73 % 0 mm
10:28 13.1 °C 8.3 °C 1026.6 hPa WSW 1.9 km/h   73 % 0 mm
10:33 13.2 °C 8.2 °C 1026.6 hPa Calm     72 % 0 mm
10:38 13.4 °C 8.7 °C 1026.6 hPa Calm     73 % 0 mm
10:43 13.7 °C 8.8 °C 1026.3 hPa Calm     72 % 0 mm
10:48 13.9 °C 8.9 °C 1026.3 hPa Calm     72 % 0 mm
10:53 14.1 °C 8.7 °C 1026 hPa Calm     70 % 0 mm
10:58 14.2 °C 8.8 °C 1026 hPa Calm     70 % 0 mm
11:03 14.3 °C 8.7 °C 1026 hPa Calm     69 % 0 mm
11:08 14.4 °C 8.6 °C 1026 hPa West 1.9 km/h 1.9 km/h 68 % 0 mm
11:13 14.6 °C 8.7 °C 1026 hPa Calm     68 % 0 mm
11:18 14.8 °C 8.7 °C 1025.6 hPa Calm     67 % 0 mm
11:23 15.1 °C 8.9 °C 1025.6 hPa NW 1.9 km/h 1.9 km/h 67 % 0 mm
11:28 15.3 °C 8.9 °C 1025.6 hPa NW 1.6 km/h 1.6 km/h 66 % 0 mm
11:33 15.4 °C 9.1 °C 1025.6 hPa Calm     66 % 0 mm
11:38 15.7 °C 9.3 °C 1025.6 hPa NW 3.7 km/h 3.7 km/h 66 % 0 mm
11:43 15.8 °C 9.3 °C 1025.6 hPa NW 1.9 km/h 1.9 km/h 65 % 0 mm
11:48 15.9 °C 9.4 °C 1025.3 hPa NW 3.7 km/h 3.7 km/h 65 % 0 mm
11:53 16.3 °C 9.7 °C 1025.3 hPa Calm     65 % 0 mm
11:58 16.3 °C 9.2 °C 1025.3 hPa NW 5.6 km/h 5.6 km/h 63 % 0 mm
12:03 16.4 °C 9.1 °C 1024.9 hPa WNW 5.6 km/h 5.6 km/h 62 % 0 mm
12:08 16.5 °C 9.4 °C 1024.9 hPa NE 3.7 km/h   63 % 0 mm
12:13 16.6 °C 9.6 °C 1024.9 hPa WNW 3.7 km/h 3.7 km/h 63 % 0 mm
12:18 16.6 °C 9.3 °C 1024.9 hPa NW 1.9 km/h   62 % 0 mm
12:23 16.8 °C 9.4 °C 1024.6 hPa West 1.9 km/h   62 % 0 mm
12:28 17.1 °C 9.8 °C 1024.6 hPa NW 1.9 km/h 1.9 km/h 62 % 0 mm
12:33 17.4 °C 9.6 °C 1024.6 hPa NW 1.9 km/h   60 % 0 mm
12:38 17.6 °C 9.7 °C 1024.3 hPa WNW 1.9 km/h 1.9 km/h 60 % 0 mm
12:43 17.5 °C 9.4 °C 1024.3 hPa West 3.7 km/h 3.7 km/h 59 % 0 mm
12:48 17.4 °C 9.6 °C 1024.3 hPa NW 1.9 km/h   60 % 0 mm
12:53 17.6 °C 10 °C 1024.3 hPa NNW 1.6 km/h 1.6 km/h 61 % 0 mm
12:58 17.7 °C 9.8 °C 1024.3 hPa NNW 1.9 km/h 1.9 km/h 60 % 0 mm
13:03 17.7 °C 9.8 °C 1023.9 hPa NW 1.9 km/h 1.9 km/h 60 % 0 mm
13:08 17.8 °C 9.9 °C 1023.9 hPa Calm     60 % 0 mm
13:13 17.8 °C 9.7 °C 1023.9 hPa WNW 3.7 km/h 3.7 km/h 59 % 0 mm
13:18 17.7 °C 10.1 °C 1023.6 hPa Calm     61 % 0 mm
13:23 17.8 °C 9.7 °C 1023.6 hPa WNW 1.9 km/h   59 % 0 mm
13:28 17.9 °C 9.8 °C 1023.2 hPa WNW 3.2 km/h 3.2 km/h 59 % 0 mm
13:33 17.9 °C 9.5 °C 1023.2 hPa Calm     58 % 0 mm
13:38 18.1 °C 9.9 °C 1023.2 hPa Calm     59 % 0 mm
13:43 18.1 °C 9.9 °C 1022.9 hPa Calm     59 % 0 mm
13:48 18.2 °C 10.1 °C 1022.9 hPa Calm     59 % 0 mm
13:53 18.3 °C 9.9 °C 1022.9 hPa Calm     58 % 0 mm
13:58 18.4 °C 9.8 °C 1022.9 hPa Calm     57 % 0 mm
14:03 18.4 °C 9.7 °C 1022.6 hPa Calm     57 % 0 mm
14:08 18.3 °C 9.6 °C 1022.6 hPa Calm     57 % 0 mm
14:13 18.4 °C 10 °C 1022.6 hPa Calm     58 % 0 mm
14:18 18.6 °C 10.1 °C 1022.2 hPa Calm   0.2 km/h 58 % 0 mm
14:23 18.4 °C 9.8 °C 1022.6 hPa NW 1.9 km/h 1.9 km/h 57 % 0 mm
14:28 18.3 °C 9.9 °C 1022.2 hPa NW 3.2 km/h 3.2 km/h 58 % 0 mm
14:33 18.2 °C 9.8 °C 1022.2 hPa Calm     58 % 0 mm
14:39 18.2 °C 9.8 °C 1022.2 hPa Calm     58 % 0 mm
14:43 18.1 °C 10.2 °C 1022.2 hPa Calm     60 % 0 mm
14:48 18.2 °C 10 °C 1021.9 hPa WNW 1.9 km/h   59 % 0 mm
14:53 18.2 °C 9.8 °C 1021.9 hPa WNW 1.9 km/h   58 % 0 mm
14:58 18.3 °C 9.9 °C 1021.9 hPa WNW 1.9 km/h   58 % 0 mm
15:03 18.3 °C 9.7 °C 1021.9 hPa NNW 1.9 km/h 1.9 km/h 57 % 0 mm
15:08 18.3 °C 9.6 °C 1021.9 hPa Calm     57 % 0 mm
15:13 18.3 °C 10.1 °C 1021.9 hPa Calm     59 % 0 mm
15:18 18.3 °C 9.9 °C 1021.9 hPa Calm     58 % 0 mm
15:24 18.3 °C 9.9 °C 1021.9 hPa NW 3.7 km/h   58 % 0 mm
15:29 18.3 °C 9.6 °C 1021.9 hPa Calm     57 % 0 mm
15:34 18.3 °C 9.9 °C 1021.9 hPa Calm     58 % 0 mm
15:39 18.3 °C 9.9 °C 1021.6 hPa Calm     58 % 0 mm
15:44 18.3 °C 9.9 °C 1021.6 hPa Calm     58 % 0 mm
15:49 18.4 °C 10 °C 1021.6 hPa WNW 1.9 km/h   58 % 0 mm
15:54 18.3 °C 9.9 °C 1021.6 hPa WNW 1.9 km/h   58 % 0 mm
15:59 18.2 °C 10.1 °C 1021.6 hPa NW 1.9 km/h   59 % 0 mm
16:04 18.2 °C 10 °C 1021.2 hPa Calm     59 % 0 mm
16:09 18.2 °C 10 °C 1021.2 hPa NW 3.7 km/h 3.7 km/h 59 % 0 mm
16:14 18.2 °C 10 °C 1021.6 hPa Calm     59 % 0 mm
16:19 18 °C 10.1 °C 1021.2 hPa Calm     60 % 0 mm
16:24 17.8 °C 9.9 °C 1021.2 hPa Calm     60 % 0 mm
16:29 17.7 °C 10.1 °C 1021.2 hPa Calm     61 % 0 mm
16:34 17.6 °C 10.2 °C 1021.2 hPa Calm     62 % 0 mm
16:39 17.4 °C 10.1 °C 1020.9 hPa Calm     62 % 0 mm
16:44 17.3 °C 10.4 °C 1020.9 hPa Calm     64 % 0 mm
16:49 16.9 °C 10.5 °C 1020.9 hPa Calm     66 % 0 mm
16:54 16.5 °C 10.3 °C 1021.2 hPa Calm     67 % 0 mm
16:59 16.2 °C 10.3 °C 1021.2 hPa Calm     68 % 0 mm
17:04 16.1 °C 10.2 °C 1021.2 hPa Calm     68 % 0 mm
17:09 15.8 °C 10.2 °C 1021.2 hPa Calm     69 % 0 mm
17:14 15.6 °C 10.4 °C 1021.2 hPa Calm     71 % 0 mm
17:19 15.3 °C 10.3 °C 1021.2 hPa Calm     72 % 0 mm
17:24 15 °C 10 °C 1021.2 hPa Calm     72 % 0 mm
17:29 14.7 °C 9.9 °C 1021.6 hPa Calm     73 % 0 mm
17:34 14.6 °C 10 °C 1021.6 hPa Calm     74 % 0 mm
17:39 14.4 °C 10 °C 1021.6 hPa Calm     75 % 0 mm
17:44 14.2 °C 9.8 °C 1021.6 hPa Calm     75 % 0 mm
17:49 14.2 °C 9.8 °C 1021.9 hPa Calm     75 % 0 mm
17:54 14.2 °C 9.8 °C 1021.9 hPa Calm     75 % 0 mm
17:59 14.1 °C 9.7 °C 1021.9 hPa Calm     75 % 0 mm
18:04 13.9 °C 9.7 °C 1021.9 hPa Calm     76 % 0 mm
18:09 13.6 °C 9.7 °C 1021.9 hPa Calm     77 % 0 mm
18:14 13.6 °C 9.7 °C 1021.6 hPa Calm     77 % 0 mm
18:19 13.7 °C 9.7 °C 1021.9 hPa Calm     77 % 0 mm
18:24 13.7 °C 9.8 °C 1021.9 hPa Calm     77 % 0 mm
18:29 13.4 °C 9.5 °C 1021.9 hPa Calm     77 % 0 mm
18:34 13.1 °C 9.3 °C 1022.2 hPa Calm     78 % 0 mm
18:39 12.8 °C 9.1 °C 1022.2 hPa Calm     78 % 0 mm
18:44 12.5 °C 9.2 °C 1022.2 hPa Calm     80 % 0 mm
18:49 12.2 °C 9 °C 1022.2 hPa Calm     81 % 0 mm
18:54 11.9 °C 8.8 °C 1022.2 hPa Calm     81 % 0 mm
18:59 11.7 °C 8.7 °C 1022.2 hPa Calm     82 % 0 mm
19:04 11.5 °C 8.7 °C 1022.2 hPa Calm     83 % 0 mm
19:09 11.3 °C 8.5 °C 1022.2 hPa Calm     83 % 0 mm
19:14 11.1 °C 8.4 °C 1022.2 hPa Calm     84 % 0 mm
19:19 10.9 °C 8.3 °C 1022.2 hPa Calm     84 % 0 mm
19:24 10.9 °C 8.5 °C 1022.2 hPa Calm     85 % 0 mm
19:29 10.8 °C 8.2 °C 1022.2 hPa Calm     84 % 0 mm
19:34 10.7 °C 8.5 °C 1022.6 hPa Calm     86 % 0 mm
19:39 10.6 °C 8.4 °C 1022.6 hPa Calm     86 % 0 mm
19:44 10.4 °C 8 °C 1022.6 hPa Calm     85 % 0 mm
19:49 10.2 °C 7.9 °C 1022.6 hPa Calm     86 % 0 mm
19:54 10 °C 7.8 °C 1022.6 hPa Calm     86 % 0 mm
19:59 9.8 °C 7.8 °C 1022.6 hPa Calm     87 % 0 mm
20:04 9.7 °C 7.6 °C 1022.6 hPa Calm     87 % 0 mm
20:09 9.5 °C 7.4 °C 1022.6 hPa Calm     87 % 0 mm
20:14 9.4 °C 7.4 °C 1022.6 hPa Calm     87 % 0 mm
20:19 9.4 °C 7.6 °C 1022.6 hPa Calm     88 % 0 mm
20:24 9.8 °C 8.1 °C 1022.6 hPa Calm     89 % 0 mm
20:29 9.9 °C 8.1 °C 1022.6 hPa Calm     88 % 0 mm
20:34 9.8 °C 7.7 °C 1022.9 hPa Calm     87 % 0 mm
20:39 9.6 °C 7.6 °C 1022.9 hPa Calm     87 % 0 mm
20:44 9.4 °C 7.6 °C 1022.9 hPa Calm     88 % 0 mm
20:49 9.4 °C 7.7 °C 1022.9 hPa Calm     89 % 0 mm
20:54 9.5 °C 7.8 °C 1022.9 hPa Calm     89 % 0 mm
20:59 9.8 °C 7.9 °C 1022.9 hPa Calm     88 % 0 mm
21:04 9.8 °C 7.8 °C 1022.9 hPa NE 1.9 km/h   87 % 0 mm
21:09 9.7 °C 7.8 °C 1022.9 hPa Calm     88 % 0 mm
21:14 9.6 °C 7.7 °C 1022.9 hPa Calm     88 % 0 mm
21:19 9.5 °C 7.6 °C 1022.9 hPa Calm     88 % 0 mm
21:24 9.5 °C 7.8 °C 1022.9 hPa Calm     89 % 0 mm
21:29 9.6 °C 7.8 °C 1022.9 hPa Calm     89 % 0 mm
21:34 9.6 °C 7.8 °C 1022.9 hPa Calm     89 % 0 mm
21:39 9.5 °C 7.8 °C 1022.9 hPa Calm     89 % 0 mm
21:44 9.3 °C 7.4 °C 1022.9 hPa Calm     88 % 0 mm
21:49 9.1 °C 7.2 °C 1022.9 hPa Calm     88 % 0 mm
21:55 9.1 °C 7.3 °C 1022.9 hPa Calm     89 % 0 mm
22:00 9 °C 7.4 °C 1022.9 hPa Calm     90 % 0 mm
22:05 8.9 °C 7.4 °C 1022.9 hPa Calm     90 % 0 mm
22:10 8.9 °C 7.4 °C 1022.6 hPa Calm     90 % 0 mm
22:15 8.9 °C 7.3 °C 1022.6 hPa Calm     90 % 0 mm
22:20 8.9 °C 7.3 °C 1022.6 hPa Calm     90 % 0 mm
22:25 8.8 °C 7.3 °C 1022.6 hPa Calm     90 % 0 mm
22:30 8.7 °C 7.2 °C 1022.6 hPa Calm     90 % 0 mm
22:35 8.5 °C 6.8 °C 1022.6 hPa Calm     89 % 0 mm
22:40 8.4 °C 6.8 °C 1022.6 hPa Calm     90 % 0 mm
22:45 8.4 °C 7 °C 1022.6 hPa Calm     91 % 0 mm
22:50 8.3 °C 6.9 °C 1022.6 hPa Calm     91 % 0 mm
22:55 8.2 °C 6.8 °C 1022.6 hPa Calm     91 % 0 mm
23:00 8.2 °C 6.8 °C 1022.6 hPa Calm     91 % 0 mm
23:05 8.2 °C 7 °C 1022.6 hPa Calm     92 % 0 mm
23:10 8.2 °C 7 °C 1022.6 hPa Calm     92 % 0 mm
23:15 8.2 °C 7 °C 1022.6 hPa Calm     92 % 0 mm
23:20 8.3 °C 7.1 °C 1022.6 hPa Calm     92 % 0 mm
23:25 8.2 °C 7 °C 1022.6 hPa Calm     92 % 0 mm
23:30 8.2 °C 6.9 °C 1022.6 hPa Calm     92 % 0 mm
23:35 8.1 °C 6.7 °C 1022.6 hPa Calm     91 % 0 mm
23:40 7.9 °C 6.7 °C 1022.6 hPa Calm     92 % 0 mm
23:45 7.9 °C 6.7 °C 1022.6 hPa Calm     92 % 0 mm
23:50 7.8 °C 6.6 °C 1022.6 hPa Calm     92 % 0 mm
23:55 7.7 °C 6.5 °C 1022.6 hPa Calm     92 % 0 mm
Park Place, Exeter, Tulare County, California, USA
Compliments of Weather Underground - 2.75 mb